RYR784B GMFO-LFBO
Flight info
| Callsign | RYR784B |
|---|---|
| Flight time | 1h 27m |
| Altitude | 36000 |
| Route | DIGEX DCT AMR N860 VLC L34 CASIM N608 GIROM DCT ASPET |
| Aircraft | B738/M-SDE2E3FGHIRWXY/LB1 |
Departure
| Time | 2026-04-23 17:26 |
|---|---|
| Airport | Oujda Angads Airport (GMFO) |
Arrival
| Time | 2026-04-23 18:53 |
|---|---|
| Airport | Toulouse-Blagnac Airport (LFBO) |
| Time | Latitude | Longitude | Altitude | Speed | Heading |
|---|---|---|---|---|---|
| 2026-04-23 17:11 | 34.78577 | -1.93942 | 1525 ft | 0 kts | 352° |
| 2026-04-23 17:18 | 34.78576 | -1.93942 | 1525 ft | 2 kts | 352° |
| 2026-04-23 17:19 | 34.78560 | -1.93939 | 1519 ft | 2 kts | 352° |
| 2026-04-23 17:19 | 34.78544 | -1.93936 | 1522 ft | 2 kts | 352° |
| 2026-04-23 17:19 | 34.78527 | -1.93933 | 1519 ft | 2 kts | 352° |
| 2026-04-23 17:19 | 34.78511 | -1.93932 | 1519 ft | 2 kts | 18° |
| 2026-04-23 17:20 | 34.78499 | -1.93944 | 1522 ft | 2 kts | 57° |
| 2026-04-23 17:22 | 34.78539 | -1.93837 | 1525 ft | 16 kts | 96° |
| 2026-04-23 17:23 | 34.78497 | -1.93526 | 1525 ft | 27 kts | 42° |
| 2026-04-23 17:23 | 34.78657 | -1.93351 | 1525 ft | 34 kts | 42° |
| 2026-04-23 17:23 | 34.79061 | -1.92917 | 1525 ft | 33 kts | 40° |
| 2026-04-23 17:24 | 34.79123 | -1.92862 | 1521 ft | 1 kts | 33° |
| 2026-04-23 17:24 | 34.79128 | -1.92858 | 1520 ft | 1 kts | 34° |
| 2026-04-23 17:24 | 34.79185 | -1.92812 | 1523 ft | 16 kts | 31° |
| 2026-04-23 17:25 | 34.79555 | -1.93219 | 1526 ft | 90 kts | 311° |
| 2026-04-23 17:25 | 34.80133 | -1.94039 | 1527 ft | 163 kts | 310° |
| 2026-04-23 17:26 | 34.81898 | -1.96556 | 2793 ft | 204 kts | 310° |
| 2026-04-23 17:26 | 34.83357 | -1.99253 | 4960 ft | 188 kts | 270° |
| 2026-04-23 17:27 | 34.81977 | -2.02179 | 5894 ft | 230 kts | 232° |
| 2026-04-23 17:27 | 34.80956 | -2.03835 | 6163 ft | 259 kts | 234° |
| 2026-04-23 17:27 | 34.79884 | -2.05676 | 6764 ft | 271 kts | 236° |
| 2026-04-23 17:27 | 34.78808 | -2.07588 | 7588 ft | 276 kts | 236° |
| 2026-04-23 17:28 | 34.77729 | -2.09533 | 8453 ft | 279 kts | 236° |
| 2026-04-23 17:28 | 34.76663 | -2.11521 | 9271 ft | 283 kts | 242° |
| 2026-04-23 17:28 | 34.76159 | -2.13823 | 10034 ft | 286 kts | 271° |
| 2026-04-23 17:28 | 34.76613 | -2.16206 | 10552 ft | 302 kts | 296° |
| 2026-04-23 17:29 | 34.77853 | -2.18398 | 10777 ft | 326 kts | 307° |
| 2026-04-23 17:29 | 34.79268 | -2.20632 | 11286 ft | 339 kts | 307° |
| 2026-04-23 17:29 | 34.82131 | -2.25286 | 12767 ft | 347 kts | 306° |
| 2026-04-23 17:30 | 34.83105 | -2.26836 | 13289 ft | 349 kts | 310° |
| 2026-04-23 17:30 | 34.88160 | -2.29894 | 15027 ft | 357 kts | 345° |
| 2026-04-23 17:30 | 34.90579 | -2.30635 | 15717 ft | 361 kts | 345° |
| 2026-04-23 17:31 | 34.92205 | -2.31126 | 16172 ft | 363 kts | 345° |
| 2026-04-23 17:31 | 34.94669 | -2.31878 | 16842 ft | 367 kts | 345° |
| 2026-04-23 17:31 | 34.97152 | -2.32650 | 17491 ft | 370 kts | 345° |
| 2026-04-23 17:31 | 34.99659 | -2.33441 | 18132 ft | 374 kts | 345° |
| 2026-04-23 17:32 | 35.02187 | -2.34246 | 18754 ft | 377 kts | 345° |
| 2026-04-23 17:32 | 35.04738 | -2.35062 | 19357 ft | 381 kts | 345° |
| 2026-04-23 17:32 | 35.07310 | -2.35887 | 19945 ft | 384 kts | 345° |
| 2026-04-23 17:32 | 35.09908 | -2.36720 | 20521 ft | 387 kts | 345° |
| 2026-04-23 17:33 | 35.12530 | -2.37544 | 21083 ft | 391 kts | 347° |
| 2026-04-23 17:33 | 35.15249 | -2.37776 | 21581 ft | 395 kts | 3° |
| 2026-04-23 17:33 | 35.18000 | -2.37520 | 22154 ft | 398 kts | 4° |
| 2026-04-23 17:33 | 35.20773 | -2.37275 | 22647 ft | 401 kts | 3° |
| 2026-04-23 17:34 | 35.23569 | -2.37047 | 23123 ft | 405 kts | 3° |
| 2026-04-23 17:34 | 35.26388 | -2.36833 | 23606 ft | 408 kts | 3° |
| 2026-04-23 17:34 | 35.32095 | -2.36429 | 24540 ft | 413 kts | 2° |
| 2026-04-23 17:35 | 35.34975 | -2.36231 | 24980 ft | 416 kts | 2° |
| 2026-04-23 17:35 | 35.40802 | -2.35835 | 25839 ft | 422 kts | 2° |
| 2026-04-23 17:35 | 35.43739 | -2.35635 | 26233 ft | 425 kts | 2° |
| 2026-04-23 17:36 | 35.46699 | -2.35433 | 26627 ft | 427 kts | 2° |
| 2026-04-23 17:36 | 35.49678 | -2.35230 | 27005 ft | 430 kts | 2° |
| 2026-04-23 17:36 | 35.52670 | -2.35026 | 27382 ft | 432 kts | 2° |
| 2026-04-23 17:36 | 35.55682 | -2.34820 | 27741 ft | 435 kts | 2° |
| 2026-04-23 17:37 | 35.58712 | -2.34613 | 28096 ft | 437 kts | 2° |
| 2026-04-23 17:37 | 35.61757 | -2.34404 | 28438 ft | 439 kts | 2° |
| 2026-04-23 17:37 | 35.67894 | -2.33983 | 29091 ft | 444 kts | 2° |
| 2026-04-23 17:38 | 35.70984 | -2.33771 | 29405 ft | 446 kts | 2° |
| 2026-04-23 17:38 | 35.74092 | -2.33557 | 29710 ft | 448 kts | 2° |
| 2026-04-23 17:38 | 35.77216 | -2.33342 | 30010 ft | 450 kts | 2° |
| 2026-04-23 17:38 | 35.80347 | -2.33127 | 30318 ft | 451 kts | 2° |
| 2026-04-23 17:39 | 35.83481 | -2.32911 | 30724 ft | 450 kts | 2° |
| 2026-04-23 17:39 | 35.86559 | -2.32698 | 31153 ft | 448 kts | 2° |
| 2026-04-23 17:39 | 35.89668 | -2.32484 | 31537 ft | 447 kts | 2° |
| 2026-04-23 17:39 | 35.92813 | -2.32267 | 31870 ft | 447 kts | 2° |
| 2026-04-23 17:40 | 35.95921 | -2.32052 | 32202 ft | 447 kts | 2° |
| 2026-04-23 17:40 | 35.98980 | -2.31840 | 32560 ft | 446 kts | 2° |
| 2026-04-23 17:40 | 36.02109 | -2.31624 | 32916 ft | 445 kts | 2° |
| 2026-04-23 17:40 | 36.05198 | -2.31410 | 33230 ft | 444 kts | 2° |
| 2026-04-23 17:41 | 36.08243 | -2.31199 | 33531 ft | 444 kts | 2° |
| 2026-04-23 17:41 | 36.14399 | -2.30772 | 34163 ft | 442 kts | 2° |
| 2026-04-23 17:41 | 36.17471 | -2.30558 | 34449 ft | 442 kts | 2° |
| 2026-04-23 17:42 | 36.23604 | -2.30131 | 35015 ft | 441 kts | 2° |
| 2026-04-23 17:42 | 36.26665 | -2.29918 | 35292 ft | 440 kts | 2° |
| 2026-04-23 17:42 | 36.29721 | -2.29705 | 35547 ft | 440 kts | 2° |
| 2026-04-23 17:43 | 36.32776 | -2.29492 | 35800 ft | 439 kts | 2° |
| 2026-04-23 17:43 | 36.35826 | -2.29279 | 36017 ft | 440 kts | 2° |
| 2026-04-23 17:43 | 36.38903 | -2.29064 | 35990 ft | 445 kts | 2° |
| 2026-04-23 17:44 | 36.45137 | -2.28628 | 36007 ft | 453 kts | 3° |
| 2026-04-23 17:44 | 36.54212 | -2.25131 | 36017 ft | 465 kts | 25° |
| 2026-04-23 17:45 | 36.63044 | -2.19911 | 36002 ft | 472 kts | 25° |
| 2026-04-23 17:46 | 36.71998 | -2.14726 | 35998 ft | 473 kts | 24° |
| 2026-04-23 17:46 | 36.77964 | -2.11283 | 35995 ft | 472 kts | 24° |
| 2026-04-23 17:47 | 36.83924 | -2.07837 | 36000 ft | 473 kts | 24° |
| 2026-04-23 17:48 | 36.92883 | -2.02643 | 36001 ft | 473 kts | 24° |
| 2026-04-23 17:48 | 36.98857 | -1.99170 | 36001 ft | 474 kts | 24° |
| 2026-04-23 17:49 | 37.04830 | -1.95692 | 35999 ft | 474 kts | 24° |
| 2026-04-23 17:49 | 37.10812 | -1.92203 | 35998 ft | 475 kts | 24° |
| 2026-04-23 17:50 | 37.16789 | -1.88711 | 35998 ft | 472 kts | 24° |
| 2026-04-23 17:50 | 37.25697 | -1.83495 | 36001 ft | 471 kts | 25° |
| 2026-04-23 17:51 | 37.31600 | -1.80032 | 36002 ft | 471 kts | 25° |
| 2026-04-23 17:52 | 37.40515 | -1.74788 | 36001 ft | 472 kts | 25° |
| 2026-04-23 17:52 | 37.49441 | -1.69526 | 36002 ft | 473 kts | 25° |
| 2026-04-23 17:53 | 37.58384 | -1.64238 | 36004 ft | 474 kts | 25° |
| 2026-04-23 17:54 | 37.64349 | -1.60703 | 36002 ft | 474 kts | 25° |
| 2026-04-23 17:54 | 37.73293 | -1.55392 | 36001 ft | 474 kts | 25° |
| 2026-04-23 17:55 | 37.82237 | -1.50066 | 36000 ft | 474 kts | 25° |
| 2026-04-23 17:56 | 37.88208 | -1.46503 | 36002 ft | 475 kts | 25° |
| 2026-04-23 17:56 | 37.97164 | -1.41146 | 36001 ft | 475 kts | 25° |
| 2026-04-23 17:57 | 38.03131 | -1.37569 | 36003 ft | 474 kts | 25° |
| 2026-04-23 17:58 | 38.12032 | -1.32221 | 36003 ft | 473 kts | 25° |
| 2026-04-23 17:58 | 38.17980 | -1.28639 | 35999 ft | 473 kts | 25° |
| 2026-04-23 17:59 | 38.23925 | -1.25052 | 35999 ft | 473 kts | 25° |
| 2026-04-23 17:59 | 38.29885 | -1.21450 | 36007 ft | 475 kts | 25° |
| 2026-04-23 18:00 | 38.35852 | -1.17837 | 36000 ft | 475 kts | 25° |
| 2026-04-23 18:00 | 38.41828 | -1.14212 | 35997 ft | 476 kts | 25° |
| 2026-04-23 18:01 | 38.47814 | -1.10574 | 36007 ft | 477 kts | 25° |
| 2026-04-23 18:01 | 38.53800 | -1.06929 | 36003 ft | 477 kts | 25° |
| 2026-04-23 18:02 | 38.58774 | -1.03895 | 36000 ft | 477 kts | 25° |
| 2026-04-23 18:02 | 38.65771 | -0.99620 | 36001 ft | 477 kts | 25° |
| 2026-04-23 18:03 | 38.71750 | -0.95959 | 36005 ft | 476 kts | 25° |
| 2026-04-23 18:03 | 38.77726 | -0.92293 | 36001 ft | 476 kts | 25° |
| 2026-04-23 18:04 | 38.83706 | -0.88618 | 36007 ft | 476 kts | 25° |
| 2026-04-23 18:04 | 38.89681 | -0.84939 | 35996 ft | 477 kts | 25° |
| 2026-04-23 18:05 | 38.95659 | -0.81252 | 36006 ft | 477 kts | 25° |
| 2026-04-23 18:05 | 39.01593 | -0.77584 | 35997 ft | 475 kts | 25° |
| 2026-04-23 18:06 | 39.07542 | -0.73900 | 36005 ft | 474 kts | 25° |
| 2026-04-23 18:06 | 39.13479 | -0.70217 | 36006 ft | 473 kts | 25° |
| 2026-04-23 18:07 | 39.19406 | -0.66534 | 35997 ft | 473 kts | 25° |
| 2026-04-23 18:07 | 39.25334 | -0.62842 | 36003 ft | 473 kts | 25° |
| 2026-04-23 18:08 | 39.30251 | -0.59775 | 36001 ft | 472 kts | 25° |
| 2026-04-23 18:08 | 39.37167 | -0.55452 | 35999 ft | 472 kts | 25° |
| 2026-04-23 18:09 | 39.43077 | -0.51750 | 36004 ft | 472 kts | 25° |
| 2026-04-23 18:09 | 39.48977 | -0.48019 | 35999 ft | 472 kts | 28° |
| 2026-04-23 18:10 | 39.54558 | -0.43555 | 36001 ft | 472 kts | 33° |
| 2026-04-23 18:10 | 39.60034 | -0.38865 | 36004 ft | 472 kts | 33° |
| 2026-04-23 18:11 | 39.65529 | -0.34208 | 36000 ft | 472 kts | 32° |
| 2026-04-23 18:11 | 39.71053 | -0.29581 | 36001 ft | 472 kts | 32° |
| 2026-04-23 18:12 | 39.76582 | -0.24961 | 36002 ft | 472 kts | 32° |
| 2026-04-23 18:12 | 39.82110 | -0.20332 | 36002 ft | 472 kts | 32° |
| 2026-04-23 18:13 | 39.87629 | -0.15698 | 35999 ft | 472 kts | 32° |
| 2026-04-23 18:13 | 39.93148 | -0.11054 | 35999 ft | 472 kts | 32° |
| 2026-04-23 18:14 | 39.97736 | -0.07187 | 36002 ft | 472 kts | 32° |
| 2026-04-23 18:14 | 40.04180 | -0.01744 | 36004 ft | 472 kts | 32° |
| 2026-04-23 18:15 | 40.09703 | 0.02931 | 35999 ft | 473 kts | 32° |
| 2026-04-23 18:15 | 40.15224 | 0.07614 | 36006 ft | 474 kts | 32° |
| 2026-04-23 18:16 | 40.20759 | 0.12306 | 36003 ft | 474 kts | 31° |
| 2026-04-23 18:16 | 40.26744 | 0.15676 | 35996 ft | 472 kts | 13° |
| 2026-04-23 18:17 | 40.36341 | 0.18634 | 35998 ft | 473 kts | 13° |
| 2026-04-23 18:17 | 40.42743 | 0.20659 | 36001 ft | 474 kts | 13° |
| 2026-04-23 18:18 | 40.49143 | 0.22729 | 36005 ft | 474 kts | 13° |
| 2026-04-23 18:18 | 40.55546 | 0.24816 | 36000 ft | 474 kts | 13° |
| 2026-04-23 18:19 | 40.61943 | 0.26906 | 36001 ft | 474 kts | 13° |
| 2026-04-23 18:19 | 40.68342 | 0.28998 | 35997 ft | 474 kts | 13° |
| 2026-04-23 18:20 | 40.73673 | 0.30743 | 36004 ft | 475 kts | 13° |
| 2026-04-23 18:20 | 40.80094 | 0.32848 | 35995 ft | 476 kts | 13° |
| 2026-04-23 18:21 | 40.86532 | 0.34964 | 36010 ft | 477 kts | 13° |
| 2026-04-23 18:21 | 40.92980 | 0.37087 | 35996 ft | 477 kts | 13° |
| 2026-04-23 18:22 | 40.99405 | 0.39207 | 36001 ft | 474 kts | 13° |
| 2026-04-23 18:22 | 41.05777 | 0.41314 | 35993 ft | 472 kts | 13° |
| 2026-04-23 18:23 | 41.15335 | 0.44481 | 36001 ft | 472 kts | 13° |
| 2026-04-23 18:24 | 41.24901 | 0.47661 | 36005 ft | 472 kts | 13° |
| 2026-04-23 18:25 | 41.34453 | 0.50846 | 35997 ft | 472 kts | 13° |
| 2026-04-23 18:25 | 41.40823 | 0.52975 | 36003 ft | 472 kts | 13° |
| 2026-04-23 18:26 | 41.47192 | 0.55109 | 36004 ft | 472 kts | 13° |
| 2026-04-23 18:26 | 41.53559 | 0.57246 | 35998 ft | 472 kts | 13° |
| 2026-04-23 18:27 | 41.59928 | 0.59388 | 36001 ft | 472 kts | 13° |
| 2026-04-23 18:27 | 41.66291 | 0.61532 | 36000 ft | 472 kts | 13° |
| 2026-04-23 18:28 | 41.72575 | 0.63654 | 35971 ft | 452 kts | 13° |
| 2026-04-23 18:28 | 41.75566 | 0.64667 | 35981 ft | 435 kts | 13° |
| 2026-04-23 18:28 | 41.78474 | 0.65652 | 35994 ft | 429 kts | 13° |
| 2026-04-23 18:29 | 41.84222 | 0.67599 | 35580 ft | 428 kts | 13° |
| 2026-04-23 18:29 | 41.87088 | 0.68572 | 35219 ft | 423 kts | 13° |
| 2026-04-23 18:29 | 41.89969 | 0.69551 | 34817 ft | 420 kts | 13° |
| 2026-04-23 18:29 | 41.92789 | 0.70510 | 34433 ft | 417 kts | 13° |
| 2026-04-23 18:30 | 41.95552 | 0.71450 | 34051 ft | 414 kts | 13° |
| 2026-04-23 18:30 | 41.98336 | 0.72398 | 33659 ft | 411 kts | 13° |
| 2026-04-23 18:30 | 42.01101 | 0.73341 | 33276 ft | 408 kts | 13° |
| 2026-04-23 18:30 | 42.03844 | 0.74277 | 32881 ft | 406 kts | 13° |
| 2026-04-23 18:31 | 42.06578 | 0.75211 | 32491 ft | 404 kts | 13° |
| 2026-04-23 18:31 | 42.09290 | 0.76139 | 32129 ft | 401 kts | 13° |
| 2026-04-23 18:31 | 42.11990 | 0.77063 | 31741 ft | 399 kts | 14° |
| 2026-04-23 18:31 | 42.14675 | 0.77982 | 31366 ft | 397 kts | 14° |
| 2026-04-23 18:32 | 42.17342 | 0.78896 | 30980 ft | 395 kts | 14° |
| 2026-04-23 18:32 | 42.19999 | 0.79808 | 30606 ft | 393 kts | 14° |
| 2026-04-23 18:32 | 42.22640 | 0.80715 | 30231 ft | 391 kts | 14° |
| 2026-04-23 18:32 | 42.25264 | 0.81617 | 29873 ft | 388 kts | 14° |
| 2026-04-23 18:33 | 42.27876 | 0.82515 | 29502 ft | 386 kts | 14° |
| 2026-04-23 18:33 | 42.30472 | 0.83409 | 29115 ft | 384 kts | 14° |
| 2026-04-23 18:33 | 42.33050 | 0.84297 | 28729 ft | 382 kts | 14° |
| 2026-04-23 18:33 | 42.35614 | 0.85182 | 28356 ft | 379 kts | 14° |
| 2026-04-23 18:34 | 42.38164 | 0.86062 | 27978 ft | 377 kts | 14° |
| 2026-04-23 18:34 | 42.40696 | 0.86936 | 27600 ft | 375 kts | 14° |
| 2026-04-23 18:34 | 42.43214 | 0.87807 | 27223 ft | 373 kts | 14° |
| 2026-04-23 18:34 | 42.45720 | 0.88674 | 26841 ft | 371 kts | 14° |
| 2026-04-23 18:35 | 42.48212 | 0.89537 | 26476 ft | 369 kts | 14° |
| 2026-04-23 18:35 | 42.50686 | 0.90395 | 26118 ft | 366 kts | 14° |
| 2026-04-23 18:35 | 42.53153 | 0.91251 | 25739 ft | 365 kts | 14° |
| 2026-04-23 18:35 | 42.55606 | 0.92102 | 25385 ft | 363 kts | 14° |
| 2026-04-23 18:36 | 42.58044 | 0.92949 | 25005 ft | 361 kts | 14° |
| 2026-04-23 18:36 | 42.60475 | 0.93795 | 24637 ft | 360 kts | 14° |
| 2026-04-23 18:36 | 42.62888 | 0.94634 | 24288 ft | 357 kts | 14° |
| 2026-04-23 18:36 | 42.65295 | 0.95473 | 23919 ft | 356 kts | 14° |
| 2026-04-23 18:37 | 42.67684 | 0.96306 | 23568 ft | 354 kts | 14° |
| 2026-04-23 18:37 | 42.70064 | 0.97136 | 23201 ft | 352 kts | 14° |
| 2026-04-23 18:37 | 42.72435 | 0.97964 | 22847 ft | 351 kts | 14° |
| 2026-04-23 18:37 | 42.74796 | 0.98788 | 22482 ft | 349 kts | 14° |
| 2026-04-23 18:38 | 42.77143 | 0.99609 | 22104 ft | 348 kts | 14° |
| 2026-04-23 18:38 | 42.79540 | 1.00219 | 21554 ft | 352 kts | 5° |
| 2026-04-23 18:38 | 42.81970 | 1.00432 | 21289 ft | 347 kts | 1° |
| 2026-04-23 18:38 | 42.84361 | 1.00529 | 21067 ft | 341 kts | 1° |
| 2026-04-23 18:39 | 42.86724 | 1.00614 | 20757 ft | 338 kts | 1° |
| 2026-04-23 18:39 | 42.89062 | 1.00717 | 20466 ft | 335 kts | 1° |
| 2026-04-23 18:39 | 42.91385 | 1.00841 | 20096 ft | 334 kts | 2° |
| 2026-04-23 18:39 | 42.93698 | 1.00984 | 19784 ft | 331 kts | 2° |
| 2026-04-23 18:40 | 42.95990 | 1.01137 | 19433 ft | 330 kts | 2° |
| 2026-04-23 18:40 | 42.98277 | 1.01297 | 19095 ft | 328 kts | 2° |
| 2026-04-23 18:40 | 43.00553 | 1.01462 | 18752 ft | 327 kts | 2° |
| 2026-04-23 18:40 | 43.02814 | 1.01628 | 18463 ft | 324 kts | 2° |
| 2026-04-23 18:41 | 43.05051 | 1.01795 | 18151 ft | 321 kts | 2° |
| 2026-04-23 18:41 | 43.07278 | 1.01961 | 17796 ft | 320 kts | 2° |
| 2026-04-23 18:41 | 43.09496 | 1.02127 | 17462 ft | 319 kts | 2° |
| 2026-04-23 18:41 | 43.11704 | 1.02293 | 17146 ft | 317 kts | 2° |
| 2026-04-23 18:42 | 43.13899 | 1.02458 | 16821 ft | 315 kts | 2° |
| 2026-04-23 18:42 | 43.16085 | 1.02623 | 16487 ft | 314 kts | 2° |
| 2026-04-23 18:42 | 43.18260 | 1.02787 | 16164 ft | 312 kts | 2° |
| 2026-04-23 18:42 | 43.20422 | 1.02950 | 15860 ft | 310 kts | 2° |
| 2026-04-23 18:43 | 43.22571 | 1.03113 | 15537 ft | 308 kts | 2° |
| 2026-04-23 18:43 | 43.24708 | 1.03274 | 15210 ft | 307 kts | 2° |
| 2026-04-23 18:43 | 43.26840 | 1.03435 | 14867 ft | 306 kts | 2° |
| 2026-04-23 18:43 | 43.28960 | 1.03596 | 14576 ft | 304 kts | 2° |
| 2026-04-23 18:44 | 43.31069 | 1.03756 | 14246 ft | 303 kts | 2° |
| 2026-04-23 18:44 | 43.33169 | 1.03915 | 13925 ft | 302 kts | 2° |
| 2026-04-23 18:44 | 43.35258 | 1.04074 | 13623 ft | 300 kts | 2° |
| 2026-04-23 18:44 | 43.37336 | 1.04231 | 13310 ft | 298 kts | 2° |
| 2026-04-23 18:45 | 43.39404 | 1.04388 | 12988 ft | 297 kts | 2° |
| 2026-04-23 18:45 | 43.41464 | 1.04545 | 12679 ft | 296 kts | 2° |
| 2026-04-23 18:45 | 43.43513 | 1.04701 | 12375 ft | 294 kts | 2° |
| 2026-04-23 18:45 | 43.45552 | 1.04856 | 12061 ft | 293 kts | 2° |
| 2026-04-23 18:46 | 43.47584 | 1.05010 | 11754 ft | 291 kts | 2° |
| 2026-04-23 18:46 | 43.49601 | 1.05164 | 11475 ft | 289 kts | 2° |
| 2026-04-23 18:46 | 43.51600 | 1.05317 | 11055 ft | 288 kts | 2° |
| 2026-04-23 18:46 | 43.53619 | 1.05471 | 10370 ft | 293 kts | 2° |
| 2026-04-23 18:47 | 43.55667 | 1.05627 | 9707 ft | 296 kts | 2° |
| 2026-04-23 18:47 | 43.57736 | 1.05785 | 9038 ft | 299 kts | 2° |
| 2026-04-23 18:47 | 43.59821 | 1.05944 | 8367 ft | 301 kts | 2° |
| 2026-04-23 18:47 | 43.61919 | 1.06105 | 7649 ft | 303 kts | 2° |
| 2026-04-23 18:48 | 43.64021 | 1.06395 | 6912 ft | 306 kts | 14° |
| 2026-04-23 18:48 | 43.65892 | 1.07704 | 6205 ft | 307 kts | 35° |
| 2026-04-23 18:48 | 43.67635 | 1.09422 | 5890 ft | 299 kts | 34° |
| 2026-04-23 18:48 | 43.69320 | 1.11003 | 5627 ft | 295 kts | 33° |
| 2026-04-23 18:49 | 43.71009 | 1.12569 | 5368 ft | 290 kts | 33° |
| 2026-04-23 18:49 | 43.72693 | 1.14130 | 4754 ft | 297 kts | 33° |
| 2026-04-23 18:49 | 43.74398 | 1.15840 | 4154 ft | 305 kts | 44° |
| 2026-04-23 18:49 | 43.75459 | 1.18274 | 4086 ft | 292 kts | 75° |
| 2026-04-23 18:50 | 43.75625 | 1.20153 | 3689 ft | 296 kts | 94° |
| 2026-04-23 18:50 | 43.74544 | 1.23564 | 3047 ft | 295 kts | 131° |
| 2026-04-23 18:50 | 43.73090 | 1.25497 | 2631 ft | 284 kts | 141° |
| 2026-04-23 18:50 | 43.71559 | 1.27123 | 2258 ft | 271 kts | 144° |
| 2026-04-23 18:51 | 43.70061 | 1.28650 | 1889 ft | 258 kts | 143° |
| 2026-04-23 18:51 | 43.68667 | 1.30110 | 1561 ft | 243 kts | 143° |
| 2026-04-23 18:51 | 43.67417 | 1.31423 | 1277 ft | 214 kts | 143° |
| 2026-04-23 18:51 | 43.66311 | 1.32581 | 983 ft | 187 kts | 143° |
| 2026-04-23 18:52 | 43.65330 | 1.33609 | 750 ft | 168 kts | 143° |
| 2026-04-23 18:52 | 43.64450 | 1.34531 | 564 ft | 148 kts | 143° |
| 2026-04-23 18:52 | 43.63676 | 1.35331 | 488 ft | 123 kts | 142° |
| 2026-04-23 18:52 | 43.63120 | 1.35935 | 499 ft | 82 kts | 142° |
| 2026-04-23 18:53 | 43.62707 | 1.36375 | 501 ft | 69 kts | 142° |
| 2026-04-23 18:53 | 43.62450 | 1.36742 | 502 ft | 31 kts | 83° |
| 2026-04-23 18:53 | 43.62466 | 1.36912 | 501 ft | 12 kts | 83° |
| 2026-04-23 18:53 | 43.62467 | 1.36921 | 501 ft | 0 kts | 83° |
| 2026-04-23 18:54 | 43.62468 | 1.36933 | 501 ft | 5 kts | 82° |
| 2026-04-23 18:54 | 43.62478 | 1.37037 | 501 ft | 17 kts | 82° |
| 2026-04-23 18:54 | 43.62507 | 1.37228 | 502 ft | 18 kts | 62° |
| 2026-04-23 18:54 | 43.62512 | 1.37239 | 502 ft | 0 kts | 60° |
| 2026-04-23 18:55 | 43.62513 | 1.37241 | 502 ft | 2 kts | 59° |
| 2026-04-23 18:55 | 43.62544 | 1.37309 | 502 ft | 14 kts | 57° |
| 2026-04-23 18:55 | 43.62620 | 1.37445 | 502 ft | 18 kts | 46° |
| 2026-04-23 18:56 | 43.62662 | 1.37480 | 502 ft | 10 kts | 12° |
| 2026-04-23 18:56 | 43.62709 | 1.37452 | 502 ft | 3 kts | 323° |
| 2026-04-23 18:56 | 43.62735 | 1.37427 | 502 ft | 6 kts | 323° |
| 2026-04-23 18:56 | 43.62766 | 1.37396 | 502 ft | 9 kts | 325° |
| 2026-04-23 18:57 | 43.62815 | 1.37447 | 502 ft | 12 kts | 72° |
| 2026-04-23 18:57 | 43.62828 | 1.37512 | 502 ft | 3 kts | 89° |
| 2026-04-23 18:57 | 43.62811 | 1.37554 | 502 ft | 11 kts | 133° |
| 2026-04-23 18:57 | 43.62778 | 1.37617 | 502 ft | 6 kts | 92° |
| 2026-04-23 18:58 | 43.62792 | 1.37679 | 502 ft | 0 kts | 62° |